createdAt,value
2023-01-12T00:02:22.505Z,7.32
2023-01-12T00:04:50.923Z,6.70
2023-01-12T00:07:20.542Z,7.78
2023-01-12T00:09:49.176Z,9.55
2023-01-12T00:12:17.518Z,7.93
2023-01-12T00:14:45.913Z,8.60
2023-01-12T00:17:17.395Z,7.65
2023-01-12T00:19:47.132Z,8.45
2023-01-12T00:22:19.494Z,4.65
2023-01-12T00:24:50.113Z,9.85
2023-01-12T00:27:21.359Z,9.27
2023-01-12T00:29:49.760Z,7.05
2023-01-12T00:32:20.581Z,8.48
2023-01-12T00:34:50.513Z,6.00
2023-01-12T00:37:20.775Z,5.95
2023-01-12T00:40:01.565Z,8.65
2023-01-12T00:42:48.196Z,7.93
2023-01-12T00:45:22.953Z,8.20
2023-01-12T00:47:51.422Z,7.97
2023-01-12T00:50:21.285Z,7.50
2023-01-12T00:52:49.591Z,8.20
2023-01-12T00:55:18.035Z,5.30
2023-01-12T00:57:47.015Z,6.32
2023-01-12T01:00:16.436Z,7.90
2023-01-12T01:02:44.750Z,6.10
2023-01-12T01:05:13.180Z,8.90
2023-01-12T01:07:42.979Z,5.40
2023-01-12T01:10:12.627Z,8.18
2023-01-12T01:12:41.129Z,9.00
2023-01-12T01:15:10.682Z,7.95
2023-01-12T01:17:38.990Z,6.82
2023-01-12T01:20:07.909Z,8.73
2023-01-12T01:22:36.313Z,9.38
2023-01-12T01:25:06.880Z,8.48
2023-01-12T01:27:35.198Z,8.52
2023-01-12T01:30:03.635Z,5.03
2023-01-12T01:32:32.024Z,8.70
2023-01-12T01:35:00.353Z,7.90
2023-01-12T01:37:30.043Z,10.82
2023-01-12T01:39:58.324Z,10.15
2023-01-12T01:42:31.093Z,7.60
2023-01-12T01:45:00.824Z,8.37
2023-01-12T01:47:36.227Z,7.50
2023-01-12T01:50:08.951Z,5.55
2023-01-12T01:52:41.364Z,9.90
2023-01-12T01:55:14.463Z,9.40
2023-01-12T01:57:50.296Z,6.65
2023-01-12T02:00:19.624Z,9.02
2023-01-12T02:02:49.789Z,6.15
2023-01-12T02:05:22.576Z,8.30
2023-01-12T02:07:52.202Z,9.52
2023-01-12T02:10:21.301Z,9.73
2023-01-12T02:13:09.591Z,9.77
2023-01-12T02:16:02.954Z,9.95
2023-01-12T02:18:37.314Z,9.10
2023-01-12T02:21:16.436Z,12.63
2023-01-12T02:24:24.094Z,8.32
2023-01-12T02:27:30.027Z,6.22
2023-01-12T02:30:41.689Z,8.30
2023-01-12T02:33:24.192Z,9.65
2023-01-12T02:35:59.787Z,9.90
2023-01-12T02:38:38.598Z,7.50
2023-01-12T02:41:16.779Z,9.52
2023-01-12T02:43:45.204Z,8.02
2023-01-12T02:46:21.182Z,8.68
2023-01-12T02:48:57.235Z,9.60
2023-01-12T02:51:29.413Z,9.25
2023-01-12T02:54:02.478Z,10.73
2023-01-12T02:56:34.665Z,8.25
2023-01-12T02:59:08.708Z,7.72
2023-01-12T03:01:38.961Z,7.55
2023-01-12T03:04:10.602Z,7.78
2023-01-12T03:06:45.830Z,7.65
2023-01-12T03:09:18.514Z,13.27
2023-01-12T03:11:49.154Z,7.93
2023-01-12T03:14:19.085Z,7.38
2023-01-12T03:16:47.856Z,5.57
2023-01-12T03:19:22.587Z,7.32
2023-01-12T03:21:55.549Z,4.22
2023-01-12T03:24:27.775Z,6.53
2023-01-12T03:27:05.254Z,5.32
2023-01-12T03:29:37.923Z,6.15
2023-01-12T03:32:07.010Z,2.83
2023-01-12T03:34:39.008Z,5.03
2023-01-12T03:37:12.792Z,5.07
2023-01-12T03:42:22.565Z,3.03
2023-01-12T03:45:00.553Z,4.07
2023-01-12T03:47:31.439Z,4.35
2023-01-12T03:50:05.202Z,4.82
2023-01-12T03:55:06.729Z,6.22
2023-01-12T03:57:36.465Z,3.05
2023-01-12T04:00:08.535Z,2.38
2023-01-12T04:02:37.110Z,3.22
2023-01-12T04:05:08.883Z,5.35
2023-01-12T04:07:37.227Z,6.70
2023-01-12T04:10:06.098Z,6.40
2023-01-12T04:12:34.682Z,4.13
2023-01-12T04:15:03.087Z,9.23
2023-01-12T04:17:31.519Z,6.35
2023-01-12T04:19:59.972Z,5.13
2023-01-12T04:22:43.565Z,8.25
2023-01-12T04:25:12.664Z,6.00
2023-01-12T04:27:47.454Z,8.25
2023-01-12T04:30:17.060Z,8.02
2023-01-12T04:32:46.569Z,5.85
2023-01-12T04:35:16.497Z,9.10
2023-01-12T04:37:47.775Z,9.35
2023-01-12T04:40:17.302Z,6.97
2023-01-12T04:43:08.908Z,6.25
2023-01-12T04:45:39.421Z,11.70
2023-01-12T04:48:10.125Z,4.72
2023-01-12T04:50:39.522Z,5.72
2023-01-12T04:53:12.042Z,10.05
2023-01-12T04:55:43.324Z,7.60
2023-01-12T04:58:12.036Z,6.93
2023-01-12T05:00:40.661Z,6.25
2023-01-12T05:03:12.932Z,8.65
2023-01-12T05:05:42.185Z,8.75
2023-01-12T05:08:29.403Z,10.07
2023-01-12T05:10:59.471Z,9.13
2023-01-12T05:13:29.551Z,8.88
2023-01-12T05:15:57.979Z,7.45
2023-01-12T05:18:28.086Z,10.07
2023-01-12T05:20:58.476Z,8.63
2023-01-12T05:23:28.262Z,7.95
2023-01-12T05:26:00.519Z,12.27
2023-01-12T05:28:29.075Z,6.00
2023-01-12T05:31:03.024Z,9.05
2023-01-12T05:33:31.343Z,11.45
2023-01-12T05:35:59.673Z,9.27
2023-01-12T05:38:30.769Z,14.32
2023-01-12T05:41:00.550Z,11.25
2023-01-12T05:43:46.856Z,8.50
2023-01-12T05:46:16.462Z,7.45
2023-01-12T05:48:45.014Z,6.97
2023-01-12T05:51:13.670Z,9.48
2023-01-12T05:53:43.513Z,9.98
2023-01-12T05:56:20.707Z,10.38
2023-01-12T05:58:52.831Z,10.15
2023-01-12T06:01:22.206Z,7.32
2023-01-12T06:03:51.495Z,5.68
2023-01-12T06:06:20.144Z,8.80
2023-01-12T06:08:52.511Z,7.75
2023-01-12T06:11:39.087Z,7.90
2023-01-12T06:14:07.843Z,8.55
2023-01-12T06:16:38.833Z,10.68
2023-01-12T06:19:07.604Z,8.40
2023-01-12T06:21:36.259Z,9.35
2023-01-12T06:24:06.808Z,8.40
2023-01-12T06:26:35.336Z,7.07
2023-01-12T06:29:05.633Z,7.57
2023-01-12T06:31:34.149Z,8.45
2023-01-12T06:34:02.528Z,5.93
2023-01-12T06:36:30.846Z,6.85
2023-01-12T06:38:59.216Z,9.23
2023-01-12T06:41:45.416Z,10.13
2023-01-12T06:44:14.124Z,7.18
2023-01-12T06:46:42.527Z,6.78
2023-01-12T06:49:10.908Z,8.55
2023-01-12T06:51:39.555Z,5.10
2023-01-12T06:54:07.919Z,5.85
2023-01-12T06:56:37.631Z,9.55
2023-01-12T06:59:06.009Z,8.68
2023-01-12T07:01:34.433Z,7.65
2023-01-12T07:04:02.904Z,11.70
2023-01-12T07:06:31.251Z,6.65
2023-01-12T07:08:59.614Z,6.95
2023-01-12T07:11:28.130Z,8.27
2023-01-12T07:13:58.222Z,10.57
2023-01-12T07:16:26.546Z,7.13
2023-01-12T07:18:54.878Z,10.75
2023-01-12T07:21:23.135Z,6.85
2023-01-12T07:23:51.567Z,8.15
2023-01-12T07:26:19.885Z,12.85
2023-01-12T07:28:48.334Z,6.60
2023-01-12T07:31:19.610Z,7.55
2023-01-12T07:33:48.051Z,7.53
2023-01-12T07:36:16.376Z,8.57
2023-01-12T07:38:44.902Z,6.53
2023-01-12T07:41:34.371Z,9.55
2023-01-12T07:44:02.975Z,7.28
2023-01-12T07:46:32.842Z,8.30
2023-01-12T07:49:01.236Z,9.82
2023-01-12T07:51:30.285Z,10.90
2023-01-12T07:53:58.692Z,7.32
2023-01-12T07:56:27.099Z,8.52
2023-01-12T07:58:55.547Z,8.98
2023-01-12T08:01:23.941Z,10.75
2023-01-12T08:03:53.836Z,9.23
2023-01-12T08:06:22.143Z,7.10
2023-01-12T08:08:50.485Z,9.73
2023-01-12T08:11:19.420Z,8.75
2023-01-12T08:13:47.806Z,6.07
2023-01-12T08:16:20.834Z,9.00
2023-01-12T08:18:52.904Z,8.02
2023-01-12T08:21:27.277Z,9.52
2023-01-12T08:24:00.104Z,5.43
2023-01-12T08:26:33.147Z,7.03
2023-01-12T08:29:06.486Z,3.40
2023-01-12T08:31:35.078Z,5.75
2023-01-12T08:34:03.528Z,5.30
2023-01-12T08:36:34.221Z,3.28
2023-01-12T08:39:04.437Z,5.20
2023-01-12T08:41:37.844Z,5.10
2023-01-12T08:44:09.422Z,5.22
2023-01-12T08:46:39.459Z,6.53
2023-01-12T08:49:11.840Z,4.95
2023-01-12T08:51:47.191Z,2.80
2023-01-12T08:54:17.729Z,2.60
2023-01-12T08:56:46.480Z,2.53
2023-01-12T08:59:15.028Z,3.63
2023-01-12T09:01:43.785Z,1.17
2023-01-12T09:04:12.594Z,2.30
2023-01-12T09:06:42.684Z,3.75
2023-01-12T09:09:14.433Z,3.58
2023-01-12T09:11:44.205Z,2.53
2023-01-12T09:14:13.580Z,3.63
2023-01-12T09:16:42.327Z,1.98
2023-01-12T09:19:11.427Z,2.30
2023-01-12T09:21:41.134Z,1.95
2023-01-12T09:24:10.036Z,2.58
2023-01-12T09:26:42.120Z,1.75
2023-01-12T09:29:12.023Z,0.82
2023-01-12T09:31:42.444Z,1.65
2023-01-12T09:34:11.222Z,1.55
2023-01-12T09:36:42.176Z,2.70
2023-01-12T09:39:15.535Z,1.80
2023-01-12T09:42:09.634Z,1.40
2023-01-12T09:44:58.194Z,2.38
2023-01-12T09:47:33.414Z,1.50
2023-01-12T09:50:10.021Z,2.15
2023-01-12T09:52:42.917Z,3.55
2023-01-12T09:55:17.783Z,1.00
2023-01-12T09:58:22.985Z,1.98
2023-01-12T10:00:52.684Z,2.28
2023-01-12T10:03:28.527Z,3.00
2023-01-12T10:06:00.700Z,2.70
2023-01-12T10:08:36.004Z,1.45
2023-01-12T10:11:13.366Z,1.25
2023-01-12T10:13:57.138Z,2.58
2023-01-12T10:16:34.346Z,2.47
2023-01-12T10:19:09.124Z,1.27
2023-01-12T10:21:37.845Z,1.25
2023-01-12T10:24:13.194Z,3.22
2023-01-12T10:26:44.594Z,1.60
2023-01-12T10:29:14.501Z,1.63
2023-01-12T10:31:42.894Z,0.77
2023-01-12T10:34:13.255Z,2.10
2023-01-12T10:36:45.665Z,2.83
2023-01-12T10:39:42.832Z,1.48
2023-01-12T10:42:38.015Z,1.95
2023-01-12T10:45:15.933Z,2.35
2023-01-12T10:47:45.815Z,1.05
2023-01-12T10:50:26.473Z,1.05
2023-01-12T10:53:02.208Z,1.65
2023-01-12T10:55:33.901Z,0.57
2023-01-12T10:58:02.663Z,0.70
2023-01-12T11:00:33.039Z,1.92
2023-01-12T11:03:01.403Z,2.03
2023-01-12T11:05:36.888Z,1.83
2023-01-12T11:08:05.875Z,2.50
2023-01-12T11:10:37.531Z,0.95
2023-01-12T11:13:09.019Z,1.13
2023-01-12T11:15:40.417Z,0.98
2023-01-12T11:18:33.747Z,0.63
2023-01-12T11:21:06.821Z,0.52
2023-01-12T11:23:42.613Z,1.92
2023-01-12T11:26:18.880Z,3.00
2023-01-12T11:28:50.336Z,0.93
2023-01-12T11:31:24.100Z,0.70
2023-01-12T11:36:27.833Z,1.65
2023-01-12T11:39:02.106Z,1.40
2023-01-12T11:41:36.813Z,0.45
2023-01-12T11:44:16.784Z,1.85
2023-01-12T11:46:51.105Z,2.75
2023-01-12T11:49:24.825Z,0.98
2023-01-12T11:54:27.210Z,0.63
2023-01-12T11:57:34.075Z,0.40
2023-01-12T12:00:16.671Z,1.45
2023-01-12T12:02:58.481Z,0.50
2023-01-12T12:05:40.466Z,1.35
2023-01-12T12:08:21.667Z,0.38
2023-01-12T12:10:54.578Z,0.52
2023-01-12T12:13:36.907Z,0.20
2023-01-12T12:16:15.593Z,0.60
2023-01-12T12:19:17.097Z,1.40
2023-01-12T12:21:49.923Z,1.10
2023-01-12T12:24:34.642Z,0.93
2023-01-12T12:27:14.889Z,3.40
2023-01-12T12:30:04.471Z,0.32
2023-01-12T12:32:41.847Z,0.70
2023-01-12T12:35:45.690Z,1.60
2023-01-12T12:38:27.776Z,0.63
2023-01-12T12:41:27.895Z,1.75
2023-01-12T12:44:28.438Z,0.40
2023-01-12T12:47:01.994Z,0.68
2023-01-12T12:49:33.508Z,0.88
2023-01-12T12:52:05.011Z,2.67
2023-01-12T12:54:34.325Z,1.52
2023-01-12T12:57:02.870Z,1.23
2023-01-12T12:59:53.342Z,1.38
2023-01-12T13:02:55.712Z,1.73
2023-01-12T13:05:43.541Z,1.27
2023-01-12T13:08:23.008Z,1.73
2023-01-12T13:10:56.254Z,2.38
2023-01-12T13:13:31.872Z,1.45
2023-01-12T13:16:42.917Z,0.80
2023-01-12T13:19:37.175Z,2.95
2023-01-12T13:24:54.167Z,1.33
2023-01-12T13:27:55.928Z,1.27
2023-01-12T13:30:41.822Z,0.95
2023-01-12T13:33:24.296Z,2.60
2023-01-12T13:36:10.546Z,1.88
2023-01-12T13:38:53.464Z,1.90
2023-01-12T13:41:47.279Z,0.80
2023-01-12T13:44:22.586Z,1.77
2023-01-12T13:46:52.739Z,1.23
2023-01-12T13:49:27.447Z,0.82
2023-01-12T13:52:01.037Z,1.70
2023-01-12T13:54:30.196Z,1.08
2023-01-12T13:57:01.675Z,1.38
2023-01-12T13:59:31.086Z,0.88
2023-01-12T14:01:59.818Z,1.38
2023-01-12T14:04:57.949Z,0.90
2023-01-12T14:07:40.383Z,0.98
2023-01-12T14:10:23.863Z,1.70
2023-01-12T14:13:18.893Z,2.22
2023-01-12T14:16:04.927Z,0.93
2023-01-12T14:18:44.372Z,1.92
2023-01-12T14:21:24.122Z,1.08
2023-01-12T14:23:52.766Z,0.73
2023-01-12T14:26:24.224Z,0.80
2023-01-12T14:28:54.646Z,0.95
2023-01-12T14:31:31.957Z,1.08
2023-01-12T14:34:02.497Z,1.40
2023-01-12T14:36:35.935Z,0.95
2023-01-12T14:39:10.555Z,1.90
2023-01-12T14:41:55.978Z,1.70
2023-01-12T14:44:44.573Z,0.60
2023-01-12T14:47:25.056Z,1.05
2023-01-12T14:49:53.386Z,0.32
2023-01-12T14:52:30.712Z,0.77
2023-01-12T14:55:18.184Z,2.17
2023-01-12T14:57:50.545Z,0.50
2023-01-12T15:00:24.109Z,2.10
2023-01-12T15:02:53.734Z,0.20
2023-01-12T15:05:25.767Z,1.02
2023-01-12T15:07:56.764Z,1.20
2023-01-12T15:10:31.645Z,0.52
2023-01-12T15:13:13.918Z,0.55
2023-01-12T15:16:00.799Z,0.40
2023-01-12T15:18:46.356Z,0.30
2023-01-12T15:21:32.362Z,0.50
2023-01-12T15:24:23.123Z,0.68
2023-01-12T15:27:02.001Z,0.77
2023-01-12T15:29:42.543Z,0.30
2023-01-12T15:32:16.733Z,0.60
2023-01-12T15:34:45.031Z,1.77
2023-01-12T15:37:16.966Z,0.30
2023-01-12T15:39:45.626Z,0.20
2023-01-12T15:42:17.948Z,0.28
2023-01-12T15:44:48.648Z,0.10
2023-01-12T15:47:18.797Z,0.77
2023-01-12T15:49:49.215Z,0.52
2023-01-12T15:52:20.438Z,2.22
2023-01-12T15:54:48.959Z,1.38
2023-01-12T15:57:18.078Z,1.17
2023-01-12T15:59:48.013Z,0.40
2023-01-12T16:02:26.685Z,0.10
2023-01-12T16:04:55.047Z,0.20
2023-01-12T16:07:23.392Z,0.50
2023-01-12T16:09:51.708Z,0.15
2023-01-12T16:12:20.261Z,0.30
2023-01-12T16:14:50.316Z,0.35
2023-01-12T16:17:19.061Z,0.17
2023-01-12T16:19:47.396Z,0.80
2023-01-12T16:22:18.065Z,0.75
2023-01-12T16:24:46.416Z,0.70
2023-01-12T16:27:14.827Z,0.50
2023-01-12T16:29:43.438Z,0.70
2023-01-12T16:32:13.442Z,1.55
2023-01-12T16:34:42.102Z,2.50
2023-01-12T16:37:13.798Z,0.75
2023-01-12T16:39:42.881Z,0.30
2023-01-12T16:42:11.749Z,3.55
2023-01-12T16:44:43.824Z,1.08
2023-01-12T16:47:16.132Z,1.58
2023-01-12T16:49:44.814Z,0.22
2023-01-12T16:52:16.630Z,1.13
2023-01-12T16:54:45.134Z,1.42
2023-01-12T16:57:15.491Z,0.40
2023-01-12T16:59:44.473Z,0.10
2023-01-12T17:02:16.220Z,1.13
2023-01-12T17:04:45.928Z,4.47
2023-01-12T17:07:14.427Z,0.40
2023-01-12T17:09:43.111Z,0.75
2023-01-12T17:12:11.723Z,2.38
2023-01-12T17:14:40.418Z,0.63
2023-01-12T17:17:10.619Z,1.55
2023-01-12T17:19:43.152Z,0.80
2023-01-12T17:22:12.002Z,1.20
2023-01-12T17:24:41.973Z,0.47
2023-01-12T17:27:11.288Z,0.40
2023-01-12T17:29:40.233Z,0.40
2023-01-12T17:32:08.818Z,0.70
2023-01-12T17:34:40.212Z,0.57
2023-01-12T17:37:09.845Z,0.30
2023-01-12T17:39:43.069Z,2.75
2023-01-12T17:42:30.400Z,1.67
2023-01-12T17:44:58.820Z,0.88
2023-01-12T17:47:27.389Z,0.75
2023-01-12T17:49:57.250Z,0.95
2023-01-12T17:52:26.323Z,1.83
2023-01-12T17:54:54.672Z,0.63
2023-01-12T17:57:23.168Z,1.02
2023-01-12T17:59:52.048Z,1.83
2023-01-12T18:02:20.488Z,0.57
2023-01-12T18:04:49.035Z,0.77
2023-01-12T18:07:18.822Z,0.93
2023-01-12T18:09:47.229Z,1.42
2023-01-12T18:12:16.559Z,0.50
2023-01-12T18:14:44.919Z,1.35
2023-01-12T18:17:13.229Z,0.80
2023-01-12T18:19:42.498Z,0.68
2023-01-12T18:22:11.320Z,2.67
2023-01-12T18:24:41.353Z,0.52
2023-01-12T18:27:11.189Z,0.40
2023-01-12T18:29:42.431Z,2.13
2023-01-12T18:32:11.432Z,0.40
2023-01-12T18:34:39.857Z,0.50
2023-01-12T18:37:08.233Z,0.50
2023-01-12T18:39:36.524Z,0.50
2023-01-12T18:42:23.830Z,0.32
2023-01-12T18:44:52.215Z,1.00
2023-01-12T18:47:40.425Z,1.30
2023-01-12T18:50:26.564Z,0.75
2023-01-12T18:53:12.462Z,0.43
2023-01-12T18:55:41.804Z,0.47
2023-01-12T18:58:11.613Z,0.52
2023-01-12T19:00:40.019Z,1.13
2023-01-12T19:03:08.851Z,0.63
2023-01-12T19:05:46.347Z,1.55
2023-01-12T19:08:31.964Z,3.20
2023-01-12T19:11:08.897Z,0.98
2023-01-12T19:13:57.424Z,1.10
2023-01-12T19:16:42.652Z,1.65
2023-01-12T19:19:11.582Z,0.57
2023-01-12T19:21:57.229Z,2.05
2023-01-12T19:24:42.776Z,0.20
2023-01-12T19:27:31.247Z,0.85
2023-01-12T19:30:01.688Z,0.30
2023-01-12T19:32:30.062Z,0.60
2023-01-12T19:35:09.919Z,0.40
2023-01-12T19:37:39.332Z,0.73
2023-01-12T19:40:16.456Z,0.75
2023-01-12T19:43:01.232Z,0.60
2023-01-12T19:45:31.218Z,0.70
2023-01-12T19:47:59.628Z,1.25
2023-01-12T19:50:28.289Z,2.90
2023-01-12T19:52:57.352Z,0.93
2023-01-12T19:55:25.785Z,0.80
2023-01-12T19:57:55.381Z,0.25
2023-01-12T20:00:24.549Z,0.73
2023-01-12T20:02:55.185Z,0.38
2023-01-12T20:05:25.323Z,0.52
2023-01-12T20:07:55.612Z,1.00
2023-01-12T20:10:25.681Z,0.63
2023-01-12T20:12:55.813Z,0.50
2023-01-12T20:15:25.490Z,0.70
2023-01-12T20:18:00.764Z,0.35
2023-01-12T20:20:30.985Z,0.55
2023-01-12T20:23:00.831Z,0.93
2023-01-12T20:25:30.548Z,0.30
2023-01-12T20:28:00.983Z,0.52
2023-01-12T20:30:38.844Z,0.45
2023-01-12T20:33:10.358Z,0.73
2023-01-12T20:35:41.032Z,0.60
2023-01-12T20:38:16.420Z,0.52
2023-01-12T20:40:47.300Z,0.95
2023-01-12T20:43:17.893Z,0.90
2023-01-12T20:45:48.087Z,1.17
2023-01-12T20:48:19.619Z,0.73
2023-01-12T20:50:49.901Z,2.15
2023-01-12T20:53:20.289Z,0.20
2023-01-12T20:55:52.664Z,0.30
2023-01-12T20:58:21.105Z,0.60
2023-01-12T21:00:52.210Z,0.93
2023-01-12T21:03:23.633Z,2.80
2023-01-12T21:05:53.254Z,1.40
2023-01-12T21:08:23.393Z,2.00
2023-01-12T21:10:54.499Z,1.17
2023-01-12T21:13:24.490Z,0.28
2023-01-12T21:16:00.125Z,0.22
2023-01-12T21:18:32.081Z,0.45
2023-01-12T21:21:01.854Z,0.10
2023-01-12T21:23:31.603Z,0.68
2023-01-12T21:26:01.215Z,0.20
2023-01-12T21:28:31.293Z,0.43
2023-01-12T21:31:02.823Z,0.52
2023-01-12T21:33:32.956Z,0.82
2023-01-12T21:36:01.390Z,0.25
2023-01-12T21:38:29.716Z,0.20
2023-01-12T21:41:03.187Z,0.88
2023-01-12T21:43:32.021Z,0.35
2023-01-12T21:46:06.236Z,0.20
2023-01-12T21:48:36.085Z,0.45
2023-01-12T21:51:05.003Z,0.73
2023-01-12T21:53:33.343Z,1.02
2023-01-12T21:56:03.898Z,0.50
2023-01-12T21:58:34.250Z,0.35
2023-01-12T22:01:09.529Z,1.23
2023-01-12T22:03:39.477Z,0.38
2023-01-12T22:06:09.324Z,0.85
2023-01-12T22:08:38.241Z,0.75
2023-01-12T22:11:08.178Z,0.30
2023-01-12T22:13:36.925Z,1.17
2023-01-12T22:16:06.235Z,0.20
2023-01-12T22:18:35.758Z,0.28
2023-01-12T22:21:07.534Z,0.28
2023-01-12T22:23:36.632Z,0.38
2023-01-12T22:26:06.240Z,1.67
2023-01-12T22:28:35.355Z,0.55
2023-01-12T22:31:08.724Z,0.20
2023-01-12T22:33:37.075Z,0.80
2023-01-12T22:36:08.455Z,0.77
2023-01-12T22:38:36.860Z,0.30
2023-01-12T22:41:06.469Z,2.08
2023-01-12T22:43:40.648Z,0.20
2023-01-12T22:46:15.270Z,0.32
2023-01-12T22:48:43.966Z,0.38
2023-01-12T22:51:13.814Z,0.40
2023-01-12T22:53:42.147Z,0.10
2023-01-12T22:56:12.276Z,0.20
2023-01-12T22:58:40.797Z,0.52
2023-01-12T23:01:10.952Z,0.70
2023-01-12T23:03:39.524Z,0.82
2023-01-12T23:06:12.361Z,0.25
2023-01-12T23:08:43.002Z,0.40
2023-01-12T23:11:13.747Z,1.00
2023-01-12T23:13:42.503Z,0.40
2023-01-12T23:16:12.939Z,0.30
2023-01-12T23:18:42.784Z,0.40
2023-01-12T23:21:14.256Z,0.90
2023-01-12T23:23:46.406Z,1.33
2023-01-12T23:26:17.159Z,0.30
2023-01-12T23:28:48.439Z,0.55
2023-01-12T23:31:18.833Z,0.95
2023-01-12T23:33:47.439Z,1.15
2023-01-12T23:36:17.941Z,0.85
2023-01-12T23:38:48.018Z,1.15
2023-01-12T23:41:18.756Z,1.08
2023-01-12T23:43:48.553Z,2.72
2023-01-12T23:46:21.380Z,2.63
2023-01-12T23:48:49.894Z,0.10
2023-01-12T23:51:18.264Z,0.47
2023-01-12T23:53:48.868Z,1.30
2023-01-12T23:56:19.275Z,0.95
2023-01-12T23:58:48.249Z,0.25
